Time;durP1;ratioP1;P1;durP2;ratioP2;P2;SDS_P1;SDS_P2;PMS_P1;PMS_P2;Temp;Humidity;BMP_temperature;BMP_pressure;BME280_temperature;BME280_humidity;BME280_pressure;Samples;Min_cycle;Max_cycle;Signal;HPM_P1;HPM_P2
2022/09/14 00:03:39;;;;;;;12.38;7.88;;;15.30;99.90;;;;;;9822242;30;20418;-81
2022/09/14 00:08:40;;;;;;;10.35;7.75;;;15.30;99.90;;;;;;9819310;30;20047;-82
2022/09/14 00:13:43;;;;;;;11.52;8.30;;;15.40;99.90;;;;;;9820611;30;20072;-81
2022/09/14 00:18:44;;;;;;;8.90;7.40;;;15.30;99.90;;;;;;9821958;30;20036;-81
2022/09/14 00:23:45;;;;;;;15.57;7.00;;;15.30;99.90;;;;;;9824837;30;20048;-81
2022/09/14 00:28:51;;;;;;;10.73;7.38;;;15.40;99.90;;;;;;9808976;30;20036;-82
2022/09/14 00:33:52;;;;;;;10.18;7.28;;;15.40;99.90;;;;;;9823816;30;20048;-82
2022/09/14 00:38:55;;;;;;;8.25;6.32;;;15.50;99.90;;;;;;9822382;30;20040;-81
2022/09/14 00:44:04;;;;;;;10.23;7.15;;;15.50;99.90;;;;;;9821610;30;20062;-80
2022/09/14 00:49:35;;;;;;;8.25;6.50;;;15.60;99.90;;;;;;9856687;30;20476;-81
2022/09/14 00:54:40;;;;;;;10.10;7.10;;;15.60;99.90;;;;;;9856480;30;20135;-81
2022/09/14 00:59:42;;;;;;;10.57;7.53;;;15.60;99.90;;;;;;9855463;30;20040;-80
2022/09/14 01:04:43;;;;;;;9.27;7.63;;;15.70;99.90;;;;;;9861177;30;20138;-80
2022/09/14 01:10:10;;;;;;;14.23;7.53;;;15.60;99.90;;;;;;9856866;30;20039;-80
2022/09/14 01:15:16;;;;;;;8.95;7.00;;;15.60;99.90;;;;;;9858035;30;20036;-80
2022/09/14 01:20:20;;;;;;;11.10;7.95;;;15.60;99.90;;;;;;9856159;30;20036;-82
2022/09/14 01:25:21;;;;;;;10.65;7.93;;;15.50;99.90;;;;;;9856107;30;20040;-82
2022/09/14 01:30:22;;;;;;;14.13;8.90;;;15.50;99.90;;;;;;9858425;30;20505;-81
2022/09/14 01:35:23;;;;;;;11.07;7.93;;;15.50;99.90;;;;;;9861276;30;20651;-82
2022/09/14 01:40:34;;;;;;;10.70;6.65;;;15.30;99.90;;;;;;9860120;30;20111;-82
2022/09/14 01:45:37;;;;;;;8.43;6.30;;;15.10;99.90;;;;;;9856095;30;20119;-81
2022/09/14 01:50:42;;;;;;;8.85;6.60;;;14.80;99.90;;;;;;9861016;30;20080;-83
2022/09/14 01:55:45;;;;;;;;;;;14.70;99.90;;;;;;9860079;30;20512;-81
2022/09/14 02:00:48;;;;;;;9.85;6.47;;;14.60;99.90;;;;;;9859785;30;19971;-81
2022/09/14 02:06:04;;;;;;;10.48;6.78;;;14.40;99.90;;;;;;9859723;30;20094;-81
2022/09/14 02:11:05;;;;;;;11.02;8.00;;;14.30;99.90;;;;;;9853473;30;20159;-82
2022/09/14 02:16:05;;;;;;;11.65;8.13;;;14.30;99.90;;;;;;9853421;30;20057;-81
2022/09/14 02:21:17;;;;;;;9.77;8.13;;;14.30;99.90;;;;;;9857532;30;20039;-84
2022/09/14 02:26:20;;;;;;;12.18;7.70;;;14.40;99.90;;;;;;9854609;30;20047;-82
2022/09/14 02:31:26;;;;;;;10.57;7.13;;;14.40;99.90;;;;;;9853818;30;20401;-80
2022/09/14 02:36:29;;;;;;;10.00;7.60;;;14.50;99.90;;;;;;9854692;30;20454;-82
2022/09/14 02:41:47;;;;;;;10.35;7.70;;;14.50;99.90;;;;;;9857769;30;20031;-82
2022/09/14 02:47:09;;;;;;;8.80;7.43;;;14.40;99.90;;;;;;9852234;30;20127;-82
2022/09/14 02:52:18;;;;;;;10.45;7.32;;;14.10;99.90;;;;;;9862900;30;20182;-81
2022/09/14 02:57:19;;;;;;;10.75;7.43;;;14.00;99.90;;;;;;9841535;30;20028;-84
2022/09/14 03:02:19;;;;;;;13.77;7.88;;;14.00;99.90;;;;;;9840724;30;20036;-80
2022/09/14 03:07:20;;;;;;;11.55;8.45;;;14.00;99.90;;;;;;9848493;30;20036;-81
2022/09/14 03:12:21;;;;;;;12.68;8.25;;;14.00;99.90;;;;;;9847959;30;20481;-79
2022/09/14 03:17:21;;;;;;;11.70;8.50;;;14.10;99.90;;;;;;9848573;30;20036;-82
2022/09/14 03:22:22;;;;;;;13.30;9.50;;;14.10;99.90;;;;;;9851659;30;20497;-81
2022/09/14 03:27:22;;;;;;;11.38;8.13;;;14.20;99.90;;;;;;9848467;30;20039;-81
2022/09/14 03:32:23;;;;;;;13.50;9.15;;;14.20;99.90;;;;;;9858215;30;20035;-81
2022/09/14 03:37:24;;;;;;;13.63;8.40;;;14.20;99.90;;;;;;9859250;30;20101;-81
2022/09/14 03:42:25;;;;;;;10.30;7.75;;;14.30;99.90;;;;;;9855710;30;20075;-81
2022/09/14 03:47:25;;;;;;;8.90;6.93;;;14.30;99.90;;;;;;9862216;30;20600;-81
2022/09/14 03:52:26;;;;;;;13.57;7.50;;;14.40;99.90;;;;;;9860686;30;20028;-81
2022/09/14 03:57:26;;;;;;;9.75;6.60;;;14.40;99.90;;;;;;9856424;30;20503;-82
2022/09/14 04:02:28;;;;;;;10.50;7.20;;;14.40;99.90;;;;;;9858185;30;20055;-80
2022/09/14 04:07:29;;;;;;;10.10;7.25;;;14.30;99.90;;;;;;9858606;30;20039;-84
2022/09/14 04:12:34;;;;;;;10.75;7.55;;;14.30;99.90;;;;;;9862498;30;20397;-81
2022/09/14 04:17:35;;;;;;;14.23;7.32;;;14.30;99.90;;;;;;9861245;30;20042;-82
2022/09/14 04:22:35;;;;;;;11.48;8.85;;;14.30;99.90;;;;;;9856408;30;20394;-81
2022/09/14 04:27:36;;;;;;;13.38;10.35;;;14.40;99.90;;;;;;9860137;30;20046;-82
2022/09/14 04:32:37;;;;;;;10.85;8.30;;;14.30;99.90;;;;;;9856263;30;20068;-82
2022/09/14 04:37:37;;;;;;;13.75;8.98;;;14.30;99.90;;;;;;9859099;30;20071;-80
2022/09/14 04:42:38;;;;;;;12.45;7.78;;;14.40;99.90;;;;;;9861495;30;20548;-80
2022/09/14 04:47:38;;;;;;;11.13;7.10;;;14.30;99.90;;;;;;9861005;30;20056;-81
2022/09/14 04:52:39;;;;;;;11.85;7.95;;;14.30;99.90;;;;;;9860354;30;20515;-82
2022/09/14 04:57:39;;;;;;;12.88;8.60;;;14.40;99.90;;;;;;9861762;30;20047;-81
2022/09/14 05:02:40;;;;;;;11.50;7.50;;;14.40;99.90;;;;;;9852453;30;20036;-81
2022/09/14 05:07:41;;;;;;;10.60;6.82;;;14.50;99.90;;;;;;9861736;30;20068;-81
2022/09/14 05:12:41;;;;;;;12.15;7.72;;;14.50;99.90;;;;;;9861685;30;20036;-80
2022/09/14 05:17:42;;;;;;;10.10;6.93;;;14.60;99.90;;;;;;9860134;30;20047;-80
2022/09/14 05:22:43;;;;;;;11.73;7.15;;;14.70;99.90;;;;;;9857317;30;20097;-82
2022/09/14 05:27:43;;;;;;;10.50;7.50;;;14.70;99.90;;;;;;9859969;30;20479;-81
2022/09/14 05:32:44;;;;;;;10.82;7.97;;;14.80;99.90;;;;;;9861520;30;20039;-81
2022/09/14 05:37:44;;;;;;;13.95;7.65;;;14.90;99.90;;;;;;9861629;30;20516;-81
2022/09/14 05:42:45;;;;;;;11.98;7.97;;;15.00;99.90;;;;;;9860189;30;20988;-81
2022/09/14 05:47:45;;;;;;;12.43;7.78;;;15.20;99.90;;;;;;9858745;30;20066;-81
2022/09/14 05:52:47;;;;;;;12.43;7.55;;;15.40;99.90;;;;;;9858142;30;20573;-81
2022/09/14 05:57:51;;;;;;;11.35;7.82;;;15.60;99.90;;;;;;9843982;30;20354;-82
2022/09/14 06:02:53;;;;;;;10.25;6.82;;;15.80;99.90;;;;;;9858520;30;20486;-82
2022/09/14 06:07:54;;;;;;;11.30;7.55;;;16.00;99.90;;;;;;9859544;30;20060;-81
2022/09/14 06:12:54;;;;;;;13.13;8.38;;;16.20;99.90;;;;;;9863897;30;20158;-80
2022/09/14 06:17:55;;;;;;;13.90;8.68;;;16.40;99.90;;;;;;9848644;30;20098;-82
2022/09/14 06:22:55;;;;;;;11.88;8.10;;;16.70;99.90;;;;;;9866105;30;20106;-82
2022/09/14 06:27:56;;;;;;;13.60;7.85;;;16.80;99.90;;;;;;9861625;30;20395;-82
2022/09/14 06:32:56;;;;;;;11.65;7.70;;;17.00;99.90;;;;;;9866580;30;20472;-80
2022/09/14 06:37:57;;;;;;;13.55;7.53;;;17.10;99.90;;;;;;9864596;30;20043;-81
2022/09/14 06:43:01;;;;;;;11.52;7.97;;;17.30;99.90;;;;;;9863285;30;20048;-81
2022/09/14 06:48:01;;;;;;;14.55;7.70;;;17.50;99.90;;;;;;9864325;30;20083;-82
2022/09/14 06:53:02;;;;;;;13.32;7.47;;;17.70;99.90;;;;;;9864320;30;20789;-82
2022/09/14 06:58:03;;;;;;;11.27;7.63;;;17.80;99.90;;;;;;9865117;30;20460;-81
2022/09/14 07:03:03;;;;;;;11.38;7.63;;;18.00;99.90;;;;;;9849138;30;20389;-82
2022/09/14 07:08:04;;;;;;;14.57;8.55;;;18.20;99.90;;;;;;9865036;30;20035;-81
2022/09/14 07:13:04;;;;;;;15.88;8.77;;;18.30;99.90;;;;;;9865030;30;20043;-82
2022/09/14 07:18:05;;;;;;;17.42;9.55;;;18.50;99.90;;;;;;9848645;30;20746;-81
2022/09/14 07:23:05;;;;;;;14.73;10.73;;;18.60;99.90;;;;;;9862337;30;20044;-81
2022/09/14 07:28:06;;;;;;;18.45;9.52;;;18.50;99.90;;;;;;9864854;30;20849;-81
2022/09/14 07:33:07;;;;;;;16.80;9.70;;;18.60;99.90;;;;;;9846244;30;20471;-81
2022/09/14 07:38:07;;;;;;;15.20;9.20;;;18.70;99.90;;;;;;9848315;30;20028;-81
2022/09/14 07:43:08;;;;;;;16.77;10.02;;;18.60;99.90;;;;;;9863102;30;20044;-82
2022/09/14 07:48:08;;;;;;;16.90;9.77;;;18.70;99.90;;;;;;9863539;30;20391;-82
2022/09/14 07:53:09;;;;;;;19.00;10.60;;;18.80;99.90;;;;;;9848334;30;20035;-82
2022/09/14 07:58:09;;;;;;;17.63;10.07;;;18.90;99.90;;;;;;9863524;30;20054;-81
2022/09/14 08:03:10;;;;;;;13.70;9.35;;;19.00;99.90;;;;;;9862583;30;20043;-81
2022/09/14 08:08:11;;;;;;;16.45;11.52;;;19.00;99.90;;;;;;9862944;30;20070;-82
2022/09/14 08:13:12;;;;;;;16.42;10.07;;;19.10;99.90;;;;;;9863257;30;20033;-83
2022/09/14 08:18:13;;;;;;;16.00;10.77;;;19.10;99.90;;;;;;9862919;30;20031;-81
2022/09/14 08:23:14;;;;;;;16.58;11.05;;;19.20;99.90;;;;;;9859969;30;20381;-82
2022/09/14 08:28:14;;;;;;;14.68;9.65;;;19.40;99.90;;;;;;9858501;30;20047;-81
2022/09/14 08:33:15;;;;;;;16.67;11.10;;;19.50;99.90;;;;;;9842913;30;20035;-81
2022/09/14 08:38:16;;;;;;;15.10;10.35;;;19.80;99.90;;;;;;9862236;30;20039;-81
2022/09/14 08:43:19;;;;;;;16.27;10.25;;;19.90;99.90;;;;;;9859370;30;20043;-82
2022/09/14 08:48:25;;;;;;;16.08;10.20;;;20.00;99.90;;;;;;9859893;30;20092;-82
2022/09/14 08:53:26;;;;;;;14.95;10.32;;;20.20;99.90;;;;;;9862034;30;20560;-82
2022/09/14 08:58:46;;;;;;;14.27;10.77;;;20.20;99.90;;;;;;9859863;30;20034;-83
2022/09/14 09:03:53;;;;;;;14.77;9.50;;;20.10;99.90;;;;;;9860965;30;20043;-81
2022/09/14 09:09:16;;;;;;;18.60;11.93;;;20.10;99.90;;;;;;9860991;30;20043;-82
2022/09/14 09:14:34;;;;;;;15.98;12.15;;;20.30;99.90;;;;;;9843280;30;20059;-82
2022/09/14 09:20:05;;;;;;;18.77;12.65;;;20.60;99.90;;;;;;9859375;30;20059;-83
2022/09/14 09:25:23;;;;;;;20.42;13.52;;;20.90;99.90;;;;;;9854523;30;20056;-81
2022/09/14 09:30:23;;;;;;;18.92;12.55;;;21.10;99.90;;;;;;9860861;30;20071;-80
2022/09/14 09:35:24;;;;;;;16.20;11.65;;;21.10;99.90;;;;;;9854059;30;20131;-80
2022/09/14 09:40:34;;;;;;;18.90;12.13;;;21.20;99.90;;;;;;9854813;30;20393;-81
2022/09/14 09:45:46;;;;;;;16.42;10.63;;;21.60;99.90;;;;;;9855870;30;20063;-81
2022/09/14 09:51:22;;;;;;;16.52;10.90;;;21.80;99.90;;;;;;9858712;30;20554;-80
2022/09/14 09:56:26;;;;;;;18.63;11.57;;;21.80;99.90;;;;;;9830803;30;20042;-81
2022/09/14 10:01:30;;;;;;;20.10;13.90;;;21.80;99.90;;;;;;9860774;30;20389;-81
2022/09/14 10:06:39;;;;;;;18.35;11.57;;;21.80;99.90;;;;;;9860307;30;20500;-82
2022/09/14 10:11:40;;;;;;;19.33;12.13;;;21.60;99.90;;;;;;9859152;30;20067;-81
2022/09/14 10:16:41;;;;;;;19.83;13.23;;;21.50;99.90;;;;;;9843812;30;20488;-82
2022/09/14 10:22:23;;;;;;;19.80;11.85;;;21.70;99.90;;;;;;9854115;30;20118;-81
2022/09/14 10:27:39;;;;;;;16.05;10.63;;;22.00;99.90;;;;;;9849830;30;20079;-81
2022/09/14 10:32:44;;;;;;;12.63;8.20;;;22.50;99.90;;;;;;9859040;30;20027;-81
2022/09/14 10:38:00;;;;;;;15.00;8.55;;;23.10;99.90;;;;;;9860572;30;20108;-81
2022/09/14 10:43:21;;;;;;;10.27;7.60;;;23.10;98.70;;;;;;9859321;30;20043;-81
2022/09/14 10:48:42;;;;;;;10.05;6.57;;;22.50;96.80;;;;;;9858886;30;20055;-80
2022/09/14 10:53:54;;;;;;;8.45;6.07;;;22.10;97.00;;;;;;9858760;30;20523;-81
2022/09/14 10:59:09;;;;;;;12.10;8.57;;;21.90;96.60;;;;;;9861464;30;20062;-81
2022/09/14 11:04:29;;;;;;;;;;;21.70;96.90;;;;;;9860124;30;20031;-82
2022/09/14 11:09:41;;;;;;;10.00;6.45;;;21.40;96.80;;;;;;9865526;30;19914;-81
2022/09/14 11:14:58;;;;;;;7.85;6.40;;;21.10;97.70;;;;;;9863173;30;20036;-82
2022/09/14 11:20:07;;;;;;;9.27;6.35;;;20.90;97.80;;;;;;9865545;30;20084;-80
2022/09/14 11:25:12;;;;;;;10.68;6.60;;;20.80;99.20;;;;;;9864102;30;20070;-81
2022/09/14 11:30:17;;;;;;;12.98;7.55;;;20.90;98.90;;;;;;9863940;30;20050;-81
2022/09/14 11:35:42;;;;;;;10.85;6.90;;;20.60;99.20;;;;;;9859836;30;20035;-80
2022/09/14 11:40:55;;;;;;;14.68;7.40;;;20.50;99.90;;;;;;9864438;30;20683;-81
2022/09/14 11:46:17;;;;;;;14.00;7.68;;;20.30;99.90;;;;;;9845644;30;20568;-82
2022/09/14 11:51:27;;;;;;;14.88;8.32;;;20.20;99.90;;;;;;9863494;30;20034;-81
2022/09/14 11:56:30;;;;;;;12.55;5.72;;;20.10;99.90;;;;;;9862134;30;20042;-80
2022/09/14 12:01:39;;;;;;;14.60;7.82;;;19.90;99.90;;;;;;9861670;30;20051;-81
2022/09/14 12:06:39;;;;;;;14.73;8.90;;;19.80;99.90;;;;;;9847193;30;20039;-82
2022/09/14 12:11:42;;;;;;;12.93;7.75;;;19.70;99.90;;;;;;9863017;30;20408;-80
2022/09/14 12:17:05;;;;;;;11.23;7.50;;;19.50;99.90;;;;;;9848059;30;20035;-80
2022/09/14 12:22:27;;;;;;;10.30;7.55;;;19.20;99.90;;;;;;9853434;30;20074;-81
2022/09/14 12:27:34;;;;;;;9.68;7.50;;;19.00;99.90;;;;;;9844344;30;20050;-81
2022/09/14 12:32:41;;;;;;;13.93;10.57;;;18.70;99.90;;;;;;9848006;30;20385;-79
2022/09/14 12:37:42;;;;;;;12.95;9.45;;;18.50;99.90;;;;;;9852459;30;20046;-81
2022/09/14 12:42:42;;;;;;;12.07;9.93;;;18.50;99.90;;;;;;9852749;30;20054;-81
2022/09/14 12:47:49;;;;;;;17.60;12.05;;;18.40;99.90;;;;;;9854402;30;20056;-81
2022/09/14 12:53:18;;;;;;;14.45;10.80;;;18.40;99.90;;;;;;9849116;30;20031;-80
2022/09/14 12:58:47;;;;;;;12.73;9.52;;;18.40;99.90;;;;;;9852054;30;20035;-82
2022/09/14 13:03:52;;;;;;;9.27;7.03;;;18.20;99.90;;;;;;9852162;30;20124;-80
2022/09/14 13:08:57;;;;;;;11.43;6.33;;;18.10;99.90;;;;;;9860234;30;20461;-80
2022/09/14 13:14:00;;;;;;;10.55;7.03;;;18.00;99.90;;;;;;9859690;30;20477;-81
2022/09/14 13:19:18;;;;;;;7.40;6.20;;;17.70;99.90;;;;;;9858346;30;20034;-82
2022/09/14 13:24:42;;;;;;;8.68;6.85;;;17.60;99.90;;;;;;9859184;30;20036;-80
2022/09/14 13:29:42;;;;;;;10.63;6.82;;;17.50;99.90;;;;;;9842274;30;20027;-83
2022/09/14 13:34:43;;;;;;;10.63;7.40;;;17.50;99.90;;;;;;9859782;30;20039;-81
2022/09/14 13:39:49;;;;;;;11.38;8.75;;;17.50;99.90;;;;;;9858645;30;20028;-82
2022/09/14 13:44:51;;;;;;;12.52;7.90;;;17.70;99.90;;;;;;9857648;30;20109;-81
2022/09/14 13:49:54;;;;;;;9.90;6.75;;;18.00;99.90;;;;;;9857605;30;20036;-82
2022/09/14 13:55:19;;;;;;;10.63;7.07;;;18.00;99.90;;;;;;9855930;30;20063;-83
2022/09/14 14:00:20;;;;;;;9.83;7.43;;;18.00;99.90;;;;;;9856737;30;20074;-81
2022/09/14 14:05:33;;;;;;;9.68;7.45;;;17.90;99.90;;;;;;9860150;30;20088;-82
2022/09/14 14:10:38;;;;;;;11.07;7.80;;;17.90;99.90;;;;;;9848599;30;20721;-83
2022/09/14 14:15:40;;;;;;;;;;;17.90;99.90;;;;;;9853427;30;20032;-83
2022/09/14 14:20:41;;;;;;;12.65;9.23;;;18.00;99.90;;;;;;9854430;30;19921;-83
2022/09/14 14:25:48;;;;;;;14.00;10.15;;;18.00;99.90;;;;;;9854859;30;20378;-84
2022/09/14 14:30:49;;;;;;;12.73;9.15;;;17.90;99.90;;;;;;9854690;30;20039;-83
2022/09/14 14:35:53;;;;;;;19.00;10.80;;;17.70;99.90;;;;;;9853536;30;20034;-82
2022/09/14 14:40:54;;;;;;;10.82;8.40;;;17.60;99.90;;;;;;9864979;30;20491;-81
2022/09/14 14:45:58;;;;;;;15.05;10.05;;;17.50;99.90;;;;;;9861076;30;20063;-82
2022/09/14 14:50:59;;;;;;;16.15;11.25;;;17.60;99.90;;;;;;9864059;30;20043;-80
2022/09/14 14:56:00;;;;;;;13.25;9.95;;;17.60;99.90;;;;;;9849188;30;20069;-82
2022/09/14 15:01:00;;;;;;;15.82;10.88;;;17.70;99.90;;;;;;9865174;30;20485;-82
2022/09/14 15:06:14;;;;;;;11.70;7.70;;;17.70;99.90;;;;;;9849517;30;20044;-83
2022/09/14 15:11:17;;;;;;;10.38;7.05;;;17.70;99.90;;;;;;9866085;30;20036;-82
2022/09/14 15:16:18;;;;;;;8.60;7.05;;;17.70;99.90;;;;;;9846566;30;20028;-84
2022/09/14 15:21:18;;;;;;;9.77;8.00;;;17.70;99.90;;;;;;9861395;30;20039;-82
2022/09/14 15:26:19;;;;;;;10.90;8.25;;;17.70;99.90;;;;;;9863053;30;20047;-82
2022/09/14 15:31:19;;;;;;;15.57;10.25;;;17.60;99.90;;;;;;9863675;30;20042;-83
2022/09/14 15:36:41;;;;;;;18.15;11.57;;;17.70;99.90;;;;;;9863965;30;20038;-82
2022/09/14 15:41:42;;;;;;;18.55;13.90;;;17.70;99.90;;;;;;9863329;30;20098;-82
2022/09/14 15:46:44;;;;;;;19.13;13.45;;;17.70;99.90;;;;;;9859436;30;20056;-82
2022/09/14 15:51:49;;;;;;;14.48;11.30;;;17.70;99.90;;;;;;9862595;30;20627;-82
2022/09/14 15:56:52;;;;;;;15.55;11.20;;;17.70;99.90;;;;;;9863753;30;20057;-82
2022/09/14 16:01:53;;;;;;;24.17;18.92;;;17.60;99.90;;;;;;9864247;30;20038;-82
2022/09/14 16:06:54;;;;;;;26.42;19.75;;;17.60;99.90;;;;;;9861363;30;20036;-83
2022/09/14 16:11:54;;;;;;;22.75;16.40;;;17.50;99.90;;;;;;9861804;30;20040;-82
2022/09/14 16:16:55;;;;;;;21.55;13.95;;;17.40;99.90;;;;;;9860998;30;20485;-82
2022/09/14 16:21:56;;;;;;;18.48;13.32;;;17.40;99.90;;;;;;9860147;30;20084;-82
2022/09/14 16:26:57;;;;;;;24.00;14.90;;;17.40;99.90;;;;;;9862861;30;20043;-82
2022/09/14 16:31:57;;;;;;;21.00;15.52;;;17.30;99.90;;;;;;9859025;30;20052;-84
2022/09/14 16:36:58;;;;;;;19.35;14.75;;;17.30;99.90;;;;;;9857623;30;20043;-84
2022/09/14 16:41:58;;;;;;;19.00;13.65;;;17.30;99.90;;;;;;9860334;30;20136;-83
2022/09/14 16:46:59;;;;;;;18.58;13.90;;;17.30;99.90;;;;;;9860897;30;20055;-82
2022/09/14 16:52:00;;;;;;;20.55;14.63;;;17.30;99.90;;;;;;9861011;30;20420;-80
2022/09/14 16:57:01;;;;;;;22.63;15.07;;;17.30;99.90;;;;;;9859893;30;20610;-80
2022/09/14 17:02:01;;;;;;;25.63;18.05;;;17.20;99.90;;;;;;9860192;30;20066;-81
2022/09/14 17:07:02;;;;;;;25.10;17.88;;;17.30;99.90;;;;;;9844204;30;20848;-81
2022/09/14 17:12:03;;;;;;;26.98;17.55;;;17.20;99.90;;;;;;9859260;30;20408;-83
2022/09/14 17:17:04;;;;;;;24.20;17.80;;;17.20;99.90;;;;;;9843665;30;20039;-83
2022/09/14 17:22:04;;;;;;;25.10;17.20;;;17.20;99.90;;;;;;9843946;30;20047;-82
2022/09/14 17:27:05;;;;;;;26.70;18.15;;;17.20;99.90;;;;;;9844345;30;20036;-83
2022/09/14 17:32:06;;;;;;;24.63;19.15;;;17.20;99.90;;;;;;9854827;30;20392;-82
2022/09/14 17:37:06;;;;;;;21.35;17.48;;;17.20;99.90;;;;;;9858920;30;20044;-83
2022/09/14 17:42:07;;;;;;;22.75;16.60;;;17.10;99.90;;;;;;9858367;30;20511;-82
2022/09/14 17:47:08;;;;;;;23.05;16.17;;;17.10;99.90;;;;;;9859517;30;20060;-82
2022/09/14 17:52:08;;;;;;;20.42;17.35;;;17.10;99.90;;;;;;9858322;30;20028;-80
2022/09/14 17:57:09;;;;;;;20.52;16.58;;;17.00;99.90;;;;;;9856869;30;20567;-81
2022/09/14 18:02:10;;;;;;;23.02;17.05;;;17.00;99.90;;;;;;9858551;30;20032;-81
2022/09/14 18:07:10;;;;;;;18.45;13.75;;;17.00;99.90;;;;;;9838864;30;20092;-81
2022/09/14 18:12:14;;;;;;;19.67;14.75;;;16.90;99.90;;;;;;9864701;30;20592;-82
2022/09/14 18:17:15;;;;;;;18.63;14.77;;;16.80;99.90;;;;;;9866225;30;20497;-82
2022/09/14 18:22:16;;;;;;;23.17;15.07;;;16.80;99.90;;;;;;9863772;30;20118;-81
2022/09/14 18:27:17;;;;;;;20.45;16.45;;;16.80;99.90;;;;;;9868394;30;20028;-80
2022/09/14 18:32:18;;;;;;;23.13;17.35;;;16.70;99.90;;;;;;9868350;30;20031;-81
2022/09/14 18:37:19;;;;;;;16.20;12.45;;;16.70;99.90;;;;;;9864351;30;20039;-80
2022/09/14 18:42:20;;;;;;;15.05;10.88;;;16.70;99.90;;;;;;9863773;30;20058;-79
2022/09/14 18:47:21;;;;;;;13.55;9.90;;;16.60;99.90;;;;;;9863886;30;20055;-80
2022/09/14 18:52:21;;;;;;;12.90;9.43;;;16.50;99.90;;;;;;9864445;30;20031;-79
2022/09/14 18:57:22;;;;;;;21.10;14.05;;;16.50;99.90;;;;;;9862453;30;20389;-79
2022/09/14 19:02:23;;;;;;;20.67;15.32;;;16.40;99.90;;;;;;9860999;30;20048;-81
2022/09/14 19:07:25;;;;;;;20.10;15.35;;;16.40;99.90;;;;;;9867625;30;20385;-81
2022/09/14 19:12:26;;;;;;;15.82;11.48;;;16.40;99.90;;;;;;9847064;30;20435;-81
2022/09/14 19:17:27;;;;;;;16.35;12.13;;;16.40;99.90;;;;;;9847958;30;20117;-82
2022/09/14 19:22:28;;;;;;;15.68;11.32;;;16.40;99.90;;;;;;9861393;30;20104;-81
2022/09/14 19:27:29;;;;;;;16.75;12.77;;;16.40;99.90;;;;;;9862397;30;20035;-80
2022/09/14 19:32:29;;;;;;;17.15;12.35;;;16.40;99.90;;;;;;9862798;30;20388;-81
2022/09/14 19:37:30;;;;;;;17.80;14.27;;;16.40;99.90;;;;;;9847530;30;20103;-83
2022/09/14 19:42:31;;;;;;;18.83;14.05;;;16.40;99.90;;;;;;9865644;30;20401;-82
2022/09/14 19:47:31;;;;;;;24.40;15.60;;;16.40;99.90;;;;;;9860342;30;20047;-82
2022/09/14 19:52:32;;;;;;;22.92;16.02;;;16.40;99.90;;;;;;9863105;30;20737;-82
2022/09/14 19:57:35;;;;;;;22.70;16.05;;;16.40;99.90;;;;;;9862469;30;20043;-82
2022/09/14 20:02:36;;;;;;;23.80;15.95;;;16.40;99.90;;;;;;9862346;30;20051;-82
2022/09/14 20:07:36;;;;;;;15.10;10.55;;;16.40;99.90;;;;;;9863649;30;20039;-82
2022/09/14 20:12:37;;;;;;;14.75;10.38;;;16.40;99.90;;;;;;9847856;30;20050;-82
2022/09/14 20:17:37;;;;;;;13.70;9.40;;;16.40;99.90;;;;;;9845178;30;20071;-85
2022/09/14 20:22:39;;;;;;;16.88;10.38;;;16.40;99.90;;;;;;9862469;30;20660;-83
2022/09/14 20:27:40;;;;;;;16.05;10.70;;;16.40;99.90;;;;;;9860687;30;20111;-82
2022/09/14 20:32:40;;;;;;;15.25;10.77;;;16.50;99.90;;;;;;9855120;30;20036;-83
2022/09/14 20:37:42;;;;;;;14.65;10.70;;;16.50;99.90;;;;;;9846508;30;20039;-83
2022/09/14 20:42:43;;;;;;;18.45;10.90;;;16.50;99.90;;;;;;9857723;30;20040;-80
2022/09/14 20:47:44;;;;;;;21.33;12.40;;;16.40;99.90;;;;;;9862000;30;20066;-82
2022/09/14 20:52:45;;;;;;;20.83;13.65;;;16.40;99.90;;;;;;9843949;30;20039;-81
2022/09/14 20:57:45;;;;;;;23.05;15.68;;;16.40;99.90;;;;;;9859275;30;20071;-82
2022/09/14 21:02:50;;;;;;;19.95;13.32;;;16.40;99.90;;;;;;9858840;30;20043;-82
2022/09/14 21:07:52;;;;;;;22.52;14.77;;;16.40;99.90;;;;;;9861569;30;20043;-80
2022/09/14 21:12:53;;;;;;;24.35;15.48;;;16.50;99.90;;;;;;9856962;30;20053;-80
2022/09/14 21:17:54;;;;;;;24.65;15.50;;;16.50;99.90;;;;;;9860676;30;20049;-82
2022/09/14 21:22:54;;;;;;;29.50;16.85;;;16.40;99.90;;;;;;9844129;30;20084;-80
2022/09/14 21:27:55;;;;;;;23.35;14.90;;;16.40;99.90;;;;;;9861356;30;20047;-81
2022/09/14 21:32:56;;;;;;;23.98;15.88;;;16.40;99.90;;;;;;9845111;30;20510;-82
2022/09/14 21:37:58;;;;;;;29.52;18.40;;;16.30;99.90;;;;;;9856821;30;20040;-81
2022/09/14 21:42:59;;;;;;;22.08;14.40;;;16.40;99.90;;;;;;9858564;30;20047;-80
2022/09/14 21:48:00;;;;;;;21.40;14.38;;;16.40;99.90;;;;;;9858566;30;20134;-82
2022/09/14 21:53:00;;;;;;;32.65;16.88;;;16.40;99.90;;;;;;9860225;30;20571;-82
2022/09/14 21:58:01;;;;;;;30.30;18.00;;;16.30;99.90;;;;;;9854652;30;20040;-81
2022/09/14 22:03:02;;;;;;;28.08;17.55;;;16.30;99.90;;;;;;9860693;30;20044;-79
2022/09/14 22:08:02;;;;;;;35.40;19.38;;;16.30;99.90;;;;;;9859990;30;20512;-81
2022/09/14 22:13:03;;;;;;;37.42;18.52;;;16.30;99.90;;;;;;9858260;30;20050;-81
2022/09/14 22:18:05;;;;;;;30.42;17.45;;;16.20;99.90;;;;;;9857098;30;20089;-80
2022/09/14 22:23:06;;;;;;;43.28;21.10;;;16.20;99.90;;;;;;9860084;30;20047;-81
2022/09/14 22:28:07;;;;;;;30.25;17.88;;;16.20;99.90;;;;;;9859250;30;20036;-81
2022/09/14 22:33:09;;;;;;;30.25;18.65;;;16.30;99.90;;;;;;9841141;30;20039;-83
2022/09/14 22:38:09;;;;;;;28.92;16.77;;;16.30;99.90;;;;;;9843854;30;20036;-80
2022/09/14 22:43:10;;;;;;;45.65;22.92;;;16.30;99.90;;;;;;9858593;30;20044;-80
2022/09/14 22:48:10;;;;;;;49.35;23.15;;;16.30;99.90;;;;;;9859418;30;20059;-82
2022/09/14 22:53:11;;;;;;;45.95;21.90;;;16.30;99.90;;;;;;9860308;30;20363;-81
2022/09/14 22:58:14;;;;;;;46.58;23.17;;;16.30;99.90;;;;;;9865594;30;20063;-80
2022/09/14 23:03:16;;;;;;;57.00;25.45;;;16.20;99.90;;;;;;9862427;30;20043;-81
2022/09/14 23:08:18;;;;;;;60.30;26.17;;;16.00;99.90;;;;;;9865475;30;20040;-82
2022/09/14 23:13:18;;;;;;;57.33;24.67;;;16.00;99.90;;;;;;9859908;30;20043;-80
2022/09/14 23:18:19;;;;;;;67.03;27.25;;;16.00;99.90;;;;;;9864973;30;20044;-82
2022/09/14 23:23:20;;;;;;;48.40;23.83;;;15.90;99.90;;;;;;9865422;30;20047;-82
2022/09/14 23:28:20;;;;;;;61.67;27.30;;;15.90;99.90;;;;;;9864927;30;20035;-82
2022/09/14 23:33:21;;;;;;;42.80;23.10;;;16.00;99.90;;;;;;9862574;30;20044;-81
2022/09/14 23:38:22;;;;;;;56.33;26.77;;;16.00;99.90;;;;;;9864979;30;20054;-82
